sensor_id;sensor_type;location;lat;lon;timestamp;P1;durP1;ratioP1;P2;durP2;ratioP2
72095;SDS011;59968;51.084;16.748;2022-12-18T00:00:31;39.60;;;12.30;;
72095;SDS011;59968;51.084;16.748;2022-12-18T00:03:19;37.30;;;11.60;;
72095;SDS011;59968;51.084;16.748;2022-12-18T00:05:51;34.60;;;11.90;;
72095;SDS011;59968;51.084;16.748;2022-12-18T00:08:21;38.90;;;12.00;;
72095;SDS011;59968;51.084;16.748;2022-12-18T00:10:50;41.90;;;12.30;;
72095;SDS011;59968;51.084;16.748;2022-12-18T00:13:19;39.60;;;14.50;;
72095;SDS011;59968;51.084;16.748;2022-12-18T00:15:48;41.20;;;12.90;;
72095;SDS011;59968;51.084;16.748;2022-12-18T00:18:17;41.20;;;13.00;;
72095;SDS011;59968;51.084;16.748;2022-12-18T00:20:47;36.10;;;13.00;;
72095;SDS011;59968;51.084;16.748;2022-12-18T00:23:16;36.30;;;11.80;;
72095;SDS011;59968;51.084;16.748;2022-12-18T00:25:44;37.10;;;12.20;;
72095;SDS011;59968;51.084;16.748;2022-12-18T00:28:12;41.60;;;12.40;;
72095;SDS011;59968;51.084;16.748;2022-12-18T00:30:41;40.40;;;11.60;;
72095;SDS011;59968;51.084;16.748;2022-12-18T00:33:11;35.60;;;11.30;;
72095;SDS011;59968;51.084;16.748;2022-12-18T00:35:40;40.50;;;12.10;;
72095;SDS011;59968;51.084;16.748;2022-12-18T00:38:11;34.40;;;10.70;;
72095;SDS011;59968;51.084;16.748;2022-12-18T00:40:46;37.70;;;11.70;;
72095;SDS011;59968;51.084;16.748;2022-12-18T00:44:12;29.80;;;9.00;;
72095;SDS011;59968;51.084;16.748;2022-12-18T00:46:44;32.80;;;9.90;;
72095;SDS011;59968;51.084;16.748;2022-12-18T00:49:15;30.70;;;10.30;;
72095;SDS011;59968;51.084;16.748;2022-12-18T00:51:49;32.60;;;10.40;;
72095;SDS011;59968;51.084;16.748;2022-12-18T00:54:21;38.30;;;12.90;;
72095;SDS011;59968;51.084;16.748;2022-12-18T00:56:50;45.00;;;13.90;;
72095;SDS011;59968;51.084;16.748;2022-12-18T00:59:18;41.60;;;14.00;;
72095;SDS011;59968;51.084;16.748;2022-12-18T01:01:46;46.10;;;14.40;;
72095;SDS011;59968;51.084;16.748;2022-12-18T01:04:15;46.30;;;14.40;;
72095;SDS011;59968;51.084;16.748;2022-12-18T01:06:45;43.60;;;13.00;;
72095;SDS011;59968;51.084;16.748;2022-12-18T01:09:13;38.30;;;12.00;;
72095;SDS011;59968;51.084;16.748;2022-12-18T01:11:42;44.10;;;13.60;;
72095;SDS011;59968;51.084;16.748;2022-12-18T01:14:11;42.20;;;14.30;;
72095;SDS011;59968;51.084;16.748;2022-12-18T01:16:39;45.60;;;13.90;;
72095;SDS011;59968;51.084;16.748;2022-12-18T01:19:08;38.20;;;14.00;;
72095;SDS011;59968;51.084;16.748;2022-12-18T01:21:36;40.90;;;13.20;;
72095;SDS011;59968;51.084;16.748;2022-12-18T01:24:04;38.10;;;12.30;;
72095;SDS011;59968;51.084;16.748;2022-12-18T01:26:34;41.30;;;13.60;;
72095;SDS011;59968;51.084;16.748;2022-12-18T01:29:02;41.40;;;12.40;;
72095;SDS011;59968;51.084;16.748;2022-12-18T01:31:31;36.50;;;11.70;;
72095;SDS011;59968;51.084;16.748;2022-12-18T01:34:03;42.20;;;12.00;;
72095;SDS011;59968;51.084;16.748;2022-12-18T01:36:36;41.70;;;12.90;;
72095;SDS011;59968;51.084;16.748;2022-12-18T01:39:07;35.50;;;11.60;;
72095;SDS011;59968;51.084;16.748;2022-12-18T01:41:41;42.40;;;13.40;;
72095;SDS011;59968;51.084;16.748;2022-12-18T01:47:26;29.00;;;8.10;;
72095;SDS011;59968;51.084;16.748;2022-12-18T01:49:59;22.40;;;7.20;;
72095;SDS011;59968;51.084;16.748;2022-12-18T01:52:31;35.90;;;11.00;;
72095;SDS011;59968;51.084;16.748;2022-12-18T01:55:02;38.10;;;11.70;;
72095;SDS011;59968;51.084;16.748;2022-12-18T01:57:34;39.00;;;11.80;;
72095;SDS011;59968;51.084;16.748;2022-12-18T02:00:06;35.30;;;11.60;;
72095;SDS011;59968;51.084;16.748;2022-12-18T02:02:43;38.40;;;12.80;;
72095;SDS011;59968;51.084;16.748;2022-12-18T02:08:33;31.00;;;10.60;;
72095;SDS011;59968;51.084;16.748;2022-12-18T02:16:55;40.20;;;12.40;;
72095;SDS011;59968;51.084;16.748;2022-12-18T02:25:13;39.70;;;12.30;;
72095;SDS011;59968;51.084;16.748;2022-12-18T02:27:44;39.50;;;13.30;;
72095;SDS011;59968;51.084;16.748;2022-12-18T02:30:15;44.00;;;13.30;;
72095;SDS011;59968;51.084;16.748;2022-12-18T02:32:45;35.40;;;12.00;;
72095;SDS011;59968;51.084;16.748;2022-12-18T02:35:22;36.80;;;11.20;;
72095;SDS011;59968;51.084;16.748;2022-12-18T02:37:55;25.30;;;8.20;;
72095;SDS011;59968;51.084;16.748;2022-12-18T02:40:26;22.80;;;7.90;;
72095;SDS011;59968;51.084;16.748;2022-12-18T02:43:02;12.70;;;2.80;;
72095;SDS011;59968;51.084;16.748;2022-12-18T02:45:46;8.10;;;2.70;;
72095;SDS011;59968;51.084;16.748;2022-12-18T02:48:18;15.30;;;4.90;;
72095;SDS011;59968;51.084;16.748;2022-12-18T02:51:03;26.40;;;7.30;;
72095;SDS011;59968;51.084;16.748;2022-12-18T02:53:51;25.00;;;7.20;;
72095;SDS011;59968;51.084;16.748;2022-12-18T02:56:28;25.60;;;7.30;;
72095;SDS011;59968;51.084;16.748;2022-12-18T02:59:13;10.50;;;3.80;;
72095;SDS011;59968;51.084;16.748;2022-12-18T03:02:07;20.40;;;6.10;;
72095;SDS011;59968;51.084;16.748;2022-12-18T03:07:39;19.90;;;6.40;;
72095;SDS011;59968;51.084;16.748;2022-12-18T03:10:14;20.60;;;6.90;;
72095;SDS011;59968;51.084;16.748;2022-12-18T03:12:49;17.70;;;6.80;;
72095;SDS011;59968;51.084;16.748;2022-12-18T03:15:29;17.30;;;5.80;;
72095;SDS011;59968;51.084;16.748;2022-12-18T03:18:08;20.90;;;6.90;;
72095;SDS011;59968;51.084;16.748;2022-12-18T03:20:42;22.70;;;7.50;;
72095;SDS011;59968;51.084;16.748;2022-12-18T03:23:18;20.10;;;7.00;;
72095;SDS011;59968;51.084;16.748;2022-12-18T03:25:54;10.20;;;3.00;;
72095;SDS011;59968;51.084;16.748;2022-12-18T03:28:37;17.20;;;5.20;;
72095;SDS011;59968;51.084;16.748;2022-12-18T03:31:11;24.10;;;7.10;;
72095;SDS011;59968;51.084;16.748;2022-12-18T03:36:42;23.60;;;6.80;;
72095;SDS011;59968;51.084;16.748;2022-12-18T03:39:12;19.90;;;6.50;;
72095;SDS011;59968;51.084;16.748;2022-12-18T03:41:44;24.50;;;7.70;;
72095;SDS011;59968;51.084;16.748;2022-12-18T03:47:52;23.20;;;8.00;;
72095;SDS011;59968;51.084;16.748;2022-12-18T03:56:32;12.90;;;4.10;;
72095;SDS011;59968;51.084;16.748;2022-12-18T03:59:05;10.40;;;3.40;;
72095;SDS011;59968;51.084;16.748;2022-12-18T04:01:38;21.40;;;6.50;;
72095;SDS011;59968;51.084;16.748;2022-12-18T04:04:14;23.70;;;7.70;;
72095;SDS011;59968;51.084;16.748;2022-12-18T04:06:46;19.80;;;6.70;;
72095;SDS011;59968;51.084;16.748;2022-12-18T04:09:18;16.90;;;5.50;;
72095;SDS011;59968;51.084;16.748;2022-12-18T04:11:48;20.20;;;6.00;;
72095;SDS011;59968;51.084;16.748;2022-12-18T04:14:17;22.90;;;7.10;;
72095;SDS011;59968;51.084;16.748;2022-12-18T04:16:48;21.20;;;6.60;;
72095;SDS011;59968;51.084;16.748;2022-12-18T04:19:17;15.90;;;5.40;;
72095;SDS011;59968;51.084;16.748;2022-12-18T04:21:48;20.30;;;7.20;;
72095;SDS011;59968;51.084;16.748;2022-12-18T04:24:43;19.10;;;6.70;;
72095;SDS011;59968;51.084;16.748;2022-12-18T04:27:20;22.50;;;7.60;;
72095;SDS011;59968;51.084;16.748;2022-12-18T04:29:50;22.80;;;7.50;;
72095;SDS011;59968;51.084;16.748;2022-12-18T04:32:18;25.10;;;7.90;;
72095;SDS011;59968;51.084;16.748;2022-12-18T04:34:47;16.90;;;5.20;;
72095;SDS011;59968;51.084;16.748;2022-12-18T04:37:16;18.50;;;6.00;;
72095;SDS011;59968;51.084;16.748;2022-12-18T04:39:44;13.60;;;4.70;;
72095;SDS011;59968;51.084;16.748;2022-12-18T04:42:19;14.10;;;5.10;;
72095;SDS011;59968;51.084;16.748;2022-12-18T04:44:47;13.10;;;4.60;;
72095;SDS011;59968;51.084;16.748;2022-12-18T04:47:15;16.20;;;5.10;;
72095;SDS011;59968;51.084;16.748;2022-12-18T04:49:44;14.20;;;4.50;;
72095;SDS011;59968;51.084;16.748;2022-12-18T04:52:13;21.00;;;7.00;;
72095;SDS011;59968;51.084;16.748;2022-12-18T04:54:42;16.10;;;5.50;;
72095;SDS011;59968;51.084;16.748;2022-12-18T04:57:10;20.10;;;6.40;;
72095;SDS011;59968;51.084;16.748;2022-12-18T04:59:40;14.00;;;4.60;;
72095;SDS011;59968;51.084;16.748;2022-12-18T05:02:08;20.40;;;7.00;;
72095;SDS011;59968;51.084;16.748;2022-12-18T05:04:37;20.50;;;7.40;;
72095;SDS011;59968;51.084;16.748;2022-12-18T05:07:06;21.60;;;8.10;;
72095;SDS011;59968;51.084;16.748;2022-12-18T05:09:34;23.00;;;8.20;;
72095;SDS011;59968;51.084;16.748;2022-12-18T05:12:03;27.10;;;8.60;;
72095;SDS011;59968;51.084;16.748;2022-12-18T05:14:31;19.20;;;6.30;;
72095;SDS011;59968;51.084;16.748;2022-12-18T05:16:59;25.00;;;8.30;;
72095;SDS011;59968;51.084;16.748;2022-12-18T05:19:28;24.50;;;8.90;;
72095;SDS011;59968;51.084;16.748;2022-12-18T05:21:56;24.10;;;8.40;;
72095;SDS011;59968;51.084;16.748;2022-12-18T05:24:25;24.40;;;7.50;;
72095;SDS011;59968;51.084;16.748;2022-12-18T05:26:53;26.00;;;7.70;;
72095;SDS011;59968;51.084;16.748;2022-12-18T05:29:21;13.80;;;5.30;;
72095;SDS011;59968;51.084;16.748;2022-12-18T05:31:50;17.20;;;5.30;;
72095;SDS011;59968;51.084;16.748;2022-12-18T05:34:18;24.40;;;8.30;;
72095;SDS011;59968;51.084;16.748;2022-12-18T05:36:46;19.40;;;7.30;;
72095;SDS011;59968;51.084;16.748;2022-12-18T05:39:14;12.90;;;5.20;;
72095;SDS011;59968;51.084;16.748;2022-12-18T05:41:43;9.20;;;3.70;;
72095;SDS011;59968;51.084;16.748;2022-12-18T05:44:11;21.70;;;7.80;;
72095;SDS011;59968;51.084;16.748;2022-12-18T05:46:42;25.90;;;8.60;;
72095;SDS011;59968;51.084;16.748;2022-12-18T05:49:11;33.30;;;10.30;;
72095;SDS011;59968;51.084;16.748;2022-12-18T05:51:39;26.40;;;9.20;;
72095;SDS011;59968;51.084;16.748;2022-12-18T05:54:08;24.00;;;7.70;;
72095;SDS011;59968;51.084;16.748;2022-12-18T05:56:36;28.30;;;9.70;;
72095;SDS011;59968;51.084;16.748;2022-12-18T05:59:05;21.00;;;7.60;;
72095;SDS011;59968;51.084;16.748;2022-12-18T06:01:33;18.10;;;7.20;;
72095;SDS011;59968;51.084;16.748;2022-12-18T06:04:01;14.50;;;4.90;;
72095;SDS011;59968;51.084;16.748;2022-12-18T06:06:30;22.70;;;8.60;;
72095;SDS011;59968;51.084;16.748;2022-12-18T06:08:58;35.20;;;11.80;;
72095;SDS011;59968;51.084;16.748;2022-12-18T06:11:27;25.30;;;9.00;;
72095;SDS011;59968;51.084;16.748;2022-12-18T06:13:55;27.30;;;10.00;;
72095;SDS011;59968;51.084;16.748;2022-12-18T06:16:26;30.40;;;10.80;;
72095;SDS011;59968;51.084;16.748;2022-12-18T06:18:56;32.40;;;10.70;;
72095;SDS011;59968;51.084;16.748;2022-12-18T06:21:27;21.00;;;7.60;;
72095;SDS011;59968;51.084;16.748;2022-12-18T06:23:55;24.70;;;9.20;;
72095;SDS011;59968;51.084;16.748;2022-12-18T06:26:24;35.20;;;12.80;;
72095;SDS011;59968;51.084;16.748;2022-12-18T06:28:55;36.50;;;12.10;;
72095;SDS011;59968;51.084;16.748;2022-12-18T06:31:24;28.10;;;9.60;;
72095;SDS011;59968;51.084;16.748;2022-12-18T06:33:53;18.40;;;6.20;;
72095;SDS011;59968;51.084;16.748;2022-12-18T06:36:22;25.20;;;8.60;;
72095;SDS011;59968;51.084;16.748;2022-12-18T06:38:50;25.80;;;8.90;;
72095;SDS011;59968;51.084;16.748;2022-12-18T06:41:19;27.10;;;8.10;;
72095;SDS011;59968;51.084;16.748;2022-12-18T06:43:50;25.50;;;9.10;;
72095;SDS011;59968;51.084;16.748;2022-12-18T06:46:25;25.50;;;9.00;;
72095;SDS011;59968;51.084;16.748;2022-12-18T06:48:53;28.20;;;9.90;;
72095;SDS011;59968;51.084;16.748;2022-12-18T06:51:22;20.90;;;7.00;;
72095;SDS011;59968;51.084;16.748;2022-12-18T06:53:51;34.70;;;12.00;;
72095;SDS011;59968;51.084;16.748;2022-12-18T06:56:20;31.60;;;10.70;;
72095;SDS011;59968;51.084;16.748;2022-12-18T06:58:49;29.70;;;11.00;;
72095;SDS011;59968;51.084;16.748;2022-12-18T07:01:18;29.50;;;10.10;;
72095;SDS011;59968;51.084;16.748;2022-12-18T07:03:47;22.60;;;8.90;;
72095;SDS011;59968;51.084;16.748;2022-12-18T07:06:19;19.30;;;7.60;;
72095;SDS011;59968;51.084;16.748;2022-12-18T07:08:50;15.30;;;5.90;;
72095;SDS011;59968;51.084;16.748;2022-12-18T07:11:20;21.80;;;8.20;;
72095;SDS011;59968;51.084;16.748;2022-12-18T07:13:49;21.90;;;7.50;;
72095;SDS011;59968;51.084;16.748;2022-12-18T07:16:18;15.40;;;5.50;;
72095;SDS011;59968;51.084;16.748;2022-12-18T07:18:53;22.10;;;7.70;;
72095;SDS011;59968;51.084;16.748;2022-12-18T07:21:23;19.10;;;7.30;;
72095;SDS011;59968;51.084;16.748;2022-12-18T07:23:52;14.60;;;5.60;;
72095;SDS011;59968;51.084;16.748;2022-12-18T07:26:21;16.30;;;5.90;;
72095;SDS011;59968;51.084;16.748;2022-12-18T07:28:50;15.50;;;5.70;;
72095;SDS011;59968;51.084;16.748;2022-12-18T07:31:23;16.90;;;5.10;;
72095;SDS011;59968;51.084;16.748;2022-12-18T07:33:52;22.70;;;7.50;;
72095;SDS011;59968;51.084;16.748;2022-12-18T07:36:21;9.00;;;3.50;;
72095;SDS011;59968;51.084;16.748;2022-12-18T07:38:51;15.10;;;5.10;;
72095;SDS011;59968;51.084;16.748;2022-12-18T07:41:23;20.20;;;7.70;;
72095;SDS011;59968;51.084;16.748;2022-12-18T07:43:52;19.20;;;7.30;;
72095;SDS011;59968;51.084;16.748;2022-12-18T07:46:21;19.80;;;7.00;;
72095;SDS011;59968;51.084;16.748;2022-12-18T07:48:50;22.20;;;8.30;;
72095;SDS011;59968;51.084;16.748;2022-12-18T07:51:18;19.40;;;6.90;;
72095;SDS011;59968;51.084;16.748;2022-12-18T07:53:48;23.60;;;8.70;;
72095;SDS011;59968;51.084;16.748;2022-12-18T07:56:20;22.20;;;7.70;;
72095;SDS011;59968;51.084;16.748;2022-12-18T07:58:59;15.70;;;5.60;;
72095;SDS011;59968;51.084;16.748;2022-12-18T08:01:30;16.00;;;5.90;;
72095;SDS011;59968;51.084;16.748;2022-12-18T08:03:59;15.00;;;5.30;;
72095;SDS011;59968;51.084;16.748;2022-12-18T08:06:28;9.40;;;3.30;;
72095;SDS011;59968;51.084;16.748;2022-12-18T08:08:56;19.50;;;6.40;;
72095;SDS011;59968;51.084;16.748;2022-12-18T08:11:26;17.40;;;6.60;;
72095;SDS011;59968;51.084;16.748;2022-12-18T08:13:56;19.50;;;7.20;;
72095;SDS011;59968;51.084;16.748;2022-12-18T08:16:25;17.80;;;7.60;;
72095;SDS011;59968;51.084;16.748;2022-12-18T08:18:55;15.30;;;4.80;;
72095;SDS011;59968;51.084;16.748;2022-12-18T08:21:25;16.40;;;5.60;;
72095;SDS011;59968;51.084;16.748;2022-12-18T08:23:57;20.30;;;7.30;;
72095;SDS011;59968;51.084;16.748;2022-12-18T08:26:27;14.10;;;4.80;;
72095;SDS011;59968;51.084;16.748;2022-12-18T08:28:59;20.50;;;7.80;;
72095;SDS011;59968;51.084;16.748;2022-12-18T08:31:29;22.10;;;7.10;;
72095;SDS011;59968;51.084;16.748;2022-12-18T08:34:00;19.80;;;6.80;;
72095;SDS011;59968;51.084;16.748;2022-12-18T08:36:28;20.90;;;7.00;;
72095;SDS011;59968;51.084;16.748;2022-12-18T08:38:57;22.70;;;8.30;;
72095;SDS011;59968;51.084;16.748;2022-12-18T08:41:27;10.10;;;3.40;;
72095;SDS011;59968;51.084;16.748;2022-12-18T08:43:57;15.40;;;5.20;;
72095;SDS011;59968;51.084;16.748;2022-12-18T08:46:44;18.70;;;7.10;;
72095;SDS011;59968;51.084;16.748;2022-12-18T08:49:13;15.20;;;4.80;;
72095;SDS011;59968;51.084;16.748;2022-12-18T08:51:41;20.40;;;6.90;;
72095;SDS011;59968;51.084;16.748;2022-12-18T08:54:16;19.60;;;6.40;;
72095;SDS011;59968;51.084;16.748;2022-12-18T08:56:44;26.10;;;9.20;;
72095;SDS011;59968;51.084;16.748;2022-12-18T08:59:16;26.20;;;9.10;;
72095;SDS011;59968;51.084;16.748;2022-12-18T09:01:47;17.60;;;5.80;;
72095;SDS011;59968;51.084;16.748;2022-12-18T09:04:16;19.60;;;7.00;;
72095;SDS011;59968;51.084;16.748;2022-12-18T09:06:45;19.50;;;7.60;;
72095;SDS011;59968;51.084;16.748;2022-12-18T09:09:13;18.40;;;7.10;;
72095;SDS011;59968;51.084;16.748;2022-12-18T09:11:42;19.30;;;7.50;;
72095;SDS011;59968;51.084;16.748;2022-12-18T09:14:10;22.00;;;7.10;;
72095;SDS011;59968;51.084;16.748;2022-12-18T09:16:45;24.70;;;8.60;;
72095;SDS011;59968;51.084;16.748;2022-12-18T09:19:13;20.40;;;7.30;;
72095;SDS011;59968;51.084;16.748;2022-12-18T09:21:42;22.70;;;7.40;;
72095;SDS011;59968;51.084;16.748;2022-12-18T09:24:15;20.70;;;7.80;;
72095;SDS011;59968;51.084;16.748;2022-12-18T09:26:44;18.70;;;6.60;;
72095;SDS011;59968;51.084;16.748;2022-12-18T09:29:14;26.70;;;8.20;;
72095;SDS011;59968;51.084;16.748;2022-12-18T09:31:46;25.70;;;8.10;;
72095;SDS011;59968;51.084;16.748;2022-12-18T09:34:15;21.90;;;7.60;;
72095;SDS011;59968;51.084;16.748;2022-12-18T09:36:44;16.80;;;4.80;;
72095;SDS011;59968;51.084;16.748;2022-12-18T09:39:14;22.90;;;7.70;;
72095;SDS011;59968;51.084;16.748;2022-12-18T09:41:49;25.30;;;7.80;;
72095;SDS011;59968;51.084;16.748;2022-12-18T09:44:28;23.80;;;8.40;;
72095;SDS011;59968;51.084;16.748;2022-12-18T09:49:46;16.20;;;5.00;;
72095;SDS011;59968;51.084;16.748;2022-12-18T09:52:39;19.40;;;6.60;;
72095;SDS011;59968;51.084;16.748;2022-12-18T10:00:38;22.80;;;7.60;;
72095;SDS011;59968;51.084;16.748;2022-12-18T10:03:10;20.70;;;6.80;;
72095;SDS011;59968;51.084;16.748;2022-12-18T10:08:21;22.50;;;8.30;;
72095;SDS011;59968;51.084;16.748;2022-12-18T10:10:57;25.30;;;9.00;;
72095;SDS011;59968;51.084;16.748;2022-12-18T10:13:52;13.50;;;4.80;;
72095;SDS011;59968;51.084;16.748;2022-12-18T10:16:38;29.10;;;9.70;;
72095;SDS011;59968;51.084;16.748;2022-12-18T10:24:46;20.20;;;7.40;;
72095;SDS011;59968;51.084;16.748;2022-12-18T10:27:19;26.80;;;8.50;;
72095;SDS011;59968;51.084;16.748;2022-12-18T10:29:52;26.70;;;9.60;;
72095;SDS011;59968;51.084;16.748;2022-12-18T10:32:22;23.20;;;8.30;;
72095;SDS011;59968;51.084;16.748;2022-12-18T10:34:55;28.70;;;10.30;;
72095;SDS011;59968;51.084;16.748;2022-12-18T10:37:29;25.30;;;8.80;;
72095;SDS011;59968;51.084;16.748;2022-12-18T10:40:09;27.00;;;8.90;;
72095;SDS011;59968;51.084;16.748;2022-12-18T10:43:11;29.20;;;10.10;;
72095;SDS011;59968;51.084;16.748;2022-12-18T10:45:43;24.40;;;9.00;;
72095;SDS011;59968;51.084;16.748;2022-12-18T10:48:31;28.10;;;10.60;;
72095;SDS011;59968;51.084;16.748;2022-12-18T10:51:02;18.00;;;6.30;;
72095;SDS011;59968;51.084;16.748;2022-12-18T10:53:41;21.50;;;7.20;;
72095;SDS011;59968;51.084;16.748;2022-12-18T10:56:11;22.30;;;7.80;;
72095;SDS011;59968;51.084;16.748;2022-12-18T10:58:41;29.30;;;10.90;;
72095;SDS011;59968;51.084;16.748;2022-12-18T11:01:15;26.30;;;8.70;;
72095;SDS011;59968;51.084;16.748;2022-12-18T11:03:46;26.80;;;8.80;;
72095;SDS011;59968;51.084;16.748;2022-12-18T11:06:30;28.00;;;9.70;;
72095;SDS011;59968;51.084;16.748;2022-12-18T11:09:08;28.60;;;10.30;;
72095;SDS011;59968;51.084;16.748;2022-12-18T11:11:53;24.20;;;7.90;;
72095;SDS011;59968;51.084;16.748;2022-12-18T11:14:28;25.90;;;9.10;;
72095;SDS011;59968;51.084;16.748;2022-12-18T11:17:02;29.00;;;10.10;;
72095;SDS011;59968;51.084;16.748;2022-12-18T11:19:53;25.40;;;8.20;;
72095;SDS011;59968;51.084;16.748;2022-12-18T11:22:27;20.40;;;6.90;;
72095;SDS011;59968;51.084;16.748;2022-12-18T11:25:03;32.10;;;10.60;;
72095;SDS011;59968;51.084;16.748;2022-12-18T11:28:04;28.00;;;9.50;;
72095;SDS011;59968;51.084;16.748;2022-12-18T11:36:51;21.80;;;7.50;;
72095;SDS011;59968;51.084;16.748;2022-12-18T11:42:14;24.30;;;7.30;;
72095;SDS011;59968;51.084;16.748;2022-12-18T11:45:16;24.00;;;7.70;;
72095;SDS011;59968;51.084;16.748;2022-12-18T11:48:04;26.30;;;9.40;;
72095;SDS011;59968;51.084;16.748;2022-12-18T11:50:53;23.50;;;8.10;;
72095;SDS011;59968;51.084;16.748;2022-12-18T11:53:25;28.80;;;10.70;;
72095;SDS011;59968;51.084;16.748;2022-12-18T11:56:02;28.50;;;8.70;;
72095;SDS011;59968;51.084;16.748;2022-12-18T11:58:46;24.10;;;8.60;;
72095;SDS011;59968;51.084;16.748;2022-12-18T12:07:12;28.40;;;9.30;;
72095;SDS011;59968;51.084;16.748;2022-12-18T12:09:58;29.90;;;10.20;;
72095;SDS011;59968;51.084;16.748;2022-12-18T12:13:50;29.40;;;9.10;;
72095;SDS011;59968;51.084;16.748;2022-12-18T12:16:00;26.50;;;9.20;;
72095;SDS011;59968;51.084;16.748;2022-12-18T12:21:51;14.90;;;5.20;;
72095;SDS011;59968;51.084;16.748;2022-12-18T12:24:54;18.10;;;6.80;;
72095;SDS011;59968;51.084;16.748;2022-12-18T12:38:40;18.90;;;6.30;;
72095;SDS011;59968;51.084;16.748;2022-12-18T12:41:20;17.70;;;6.60;;
72095;SDS011;59968;51.084;16.748;2022-12-18T12:44:17;21.30;;;7.40;;
72095;SDS011;59968;51.084;16.748;2022-12-18T12:46:51;23.60;;;7.60;;
72095;SDS011;59968;51.084;16.748;2022-12-18T12:49:25;15.40;;;6.40;;
72095;SDS011;59968;51.084;16.748;2022-12-18T12:52:04;19.10;;;6.50;;
72095;SDS011;59968;51.084;16.748;2022-12-18T12:54:40;17.30;;;6.50;;
72095;SDS011;59968;51.084;16.748;2022-12-18T12:57:20;15.00;;;4.80;;
72095;SDS011;59968;51.084;16.748;2022-12-18T13:02:47;20.00;;;7.30;;
72095;SDS011;59968;51.084;16.748;2022-12-18T13:08:09;19.60;;;6.90;;
72095;SDS011;59968;51.084;16.748;2022-12-18T13:10:39;22.30;;;6.40;;
72095;SDS011;59968;51.084;16.748;2022-12-18T13:13:11;22.30;;;7.10;;
72095;SDS011;59968;51.084;16.748;2022-12-18T13:16:06;24.50;;;8.10;;
72095;SDS011;59968;51.084;16.748;2022-12-18T13:18:36;27.40;;;8.90;;
72095;SDS011;59968;51.084;16.748;2022-12-18T13:21:16;27.00;;;7.90;;
72095;SDS011;59968;51.084;16.748;2022-12-18T13:23:49;19.70;;;6.80;;
72095;SDS011;59968;51.084;16.748;2022-12-18T13:28:56;20.10;;;6.50;;
72095;SDS011;59968;51.084;16.748;2022-12-18T13:36:54;28.40;;;10.50;;
72095;SDS011;59968;51.084;16.748;2022-12-18T13:39:32;19.10;;;5.80;;
72095;SDS011;59968;51.084;16.748;2022-12-18T13:44:36;21.30;;;6.30;;
72095;SDS011;59968;51.084;16.748;2022-12-18T13:47:33;19.00;;;5.70;;
72095;SDS011;59968;51.084;16.748;2022-12-18T13:50:12;21.50;;;7.30;;
72095;SDS011;59968;51.084;16.748;2022-12-18T13:52:52;22.50;;;7.00;;
72095;SDS011;59968;51.084;16.748;2022-12-18T13:55:21;19.70;;;6.90;;
72095;SDS011;59968;51.084;16.748;2022-12-18T13:58:02;28.40;;;9.00;;
72095;SDS011;59968;51.084;16.748;2022-12-18T14:00:33;20.90;;;6.10;;
72095;SDS011;59968;51.084;16.748;2022-12-18T14:03:15;25.20;;;8.10;;
72095;SDS011;59968;51.084;16.748;2022-12-18T14:05:59;28.20;;;8.90;;
72095;SDS011;59968;51.084;16.748;2022-12-18T14:08:36;26.90;;;8.50;;
72095;SDS011;59968;51.084;16.748;2022-12-18T14:11:20;21.20;;;7.50;;
72095;SDS011;59968;51.084;16.748;2022-12-18T14:13:53;18.40;;;6.30;;
72095;SDS011;59968;51.084;16.748;2022-12-18T14:16:22;19.90;;;6.50;;
72095;SDS011;59968;51.084;16.748;2022-12-18T14:18:55;19.10;;;7.00;;
72095;SDS011;59968;51.084;16.748;2022-12-18T14:21:46;17.00;;;5.20;;
72095;SDS011;59968;51.084;16.748;2022-12-18T14:24:19;23.10;;;7.80;;
72095;SDS011;59968;51.084;16.748;2022-12-18T14:26:50;24.10;;;8.60;;
72095;SDS011;59968;51.084;16.748;2022-12-18T14:37:23;29.50;;;9.70;;
72095;SDS011;59968;51.084;16.748;2022-12-18T14:39:54;32.40;;;10.70;;
72095;SDS011;59968;51.084;16.748;2022-12-18T14:42:31;23.40;;;8.40;;
72095;SDS011;59968;51.084;16.748;2022-12-18T14:48:14;29.50;;;8.60;;
72095;SDS011;59968;51.084;16.748;2022-12-18T14:50:55;33.00;;;8.80;;
72095;SDS011;59968;51.084;16.748;2022-12-18T14:53:37;20.20;;;6.10;;
72095;SDS011;59968;51.084;16.748;2022-12-18T14:56:18;22.30;;;8.20;;
72095;SDS011;59968;51.084;16.748;2022-12-18T15:01:25;22.20;;;8.10;;
72095;SDS011;59968;51.084;16.748;2022-12-18T15:03:57;26.50;;;8.30;;
72095;SDS011;59968;51.084;16.748;2022-12-18T15:08:59;19.50;;;6.90;;
72095;SDS011;59968;51.084;16.748;2022-12-18T15:11:43;29.90;;;9.50;;
72095;SDS011;59968;51.084;16.748;2022-12-18T15:16:58;23.40;;;7.90;;
72095;SDS011;59968;51.084;16.748;2022-12-18T15:19:41;21.00;;;7.10;;
72095;SDS011;59968;51.084;16.748;2022-12-18T15:22:20;30.70;;;10.50;;
72095;SDS011;59968;51.084;16.748;2022-12-18T15:24:56;24.30;;;6.90;;
72095;SDS011;59968;51.084;16.748;2022-12-18T15:27:31;29.60;;;9.50;;
72095;SDS011;59968;51.084;16.748;2022-12-18T15:32:39;19.10;;;5.60;;
72095;SDS011;59968;51.084;16.748;2022-12-18T15:37:39;30.20;;;9.80;;
72095;SDS011;59968;51.084;16.748;2022-12-18T15:40:17;34.20;;;10.40;;
72095;SDS011;59968;51.084;16.748;2022-12-18T15:42:47;31.80;;;11.00;;
72095;SDS011;59968;51.084;16.748;2022-12-18T15:45:39;19.70;;;7.50;;
72095;SDS011;59968;51.084;16.748;2022-12-18T15:48:15;29.10;;;9.70;;
72095;SDS011;59968;51.084;16.748;2022-12-18T15:50:52;30.00;;;9.60;;
72095;SDS011;59968;51.084;16.748;2022-12-18T15:53:27;25.00;;;8.30;;
72095;SDS011;59968;51.084;16.748;2022-12-18T15:55:59;30.20;;;9.20;;
72095;SDS011;59968;51.084;16.748;2022-12-18T15:58:47;32.60;;;10.10;;
72095;SDS011;59968;51.084;16.748;2022-12-18T16:01:16;24.40;;;8.50;;
72095;SDS011;59968;51.084;16.748;2022-12-18T16:03:45;22.30;;;7.30;;
72095;SDS011;59968;51.084;16.748;2022-12-18T16:06:14;25.70;;;8.60;;
72095;SDS011;59968;51.084;16.748;2022-12-18T16:08:44;21.50;;;6.50;;
72095;SDS011;59968;51.084;16.748;2022-12-18T16:11:20;28.70;;;8.70;;
72095;SDS011;59968;51.084;16.748;2022-12-18T16:16:57;26.20;;;8.90;;
72095;SDS011;59968;51.084;16.748;2022-12-18T16:19:30;18.30;;;5.70;;
72095;SDS011;59968;51.084;16.748;2022-12-18T16:21:59;18.20;;;5.90;;
72095;SDS011;59968;51.084;16.748;2022-12-18T16:24:32;17.80;;;5.50;;
72095;SDS011;59968;51.084;16.748;2022-12-18T16:27:01;21.00;;;5.50;;
72095;SDS011;59968;51.084;16.748;2022-12-18T16:29:31;16.80;;;4.90;;
72095;SDS011;59968;51.084;16.748;2022-12-18T16:32:01;21.20;;;6.50;;
72095;SDS011;59968;51.084;16.748;2022-12-18T16:34:32;19.50;;;5.90;;
72095;SDS011;59968;51.084;16.748;2022-12-18T16:37:04;18.10;;;5.60;;
72095;SDS011;59968;51.084;16.748;2022-12-18T16:39:35;18.00;;;5.50;;
72095;SDS011;59968;51.084;16.748;2022-12-18T16:42:15;16.40;;;5.40;;
72095;SDS011;59968;51.084;16.748;2022-12-18T16:44:48;25.80;;;8.20;;
72095;SDS011;59968;51.084;16.748;2022-12-18T16:47:18;23.20;;;7.40;;
72095;SDS011;59968;51.084;16.748;2022-12-18T16:49:47;22.50;;;7.80;;
72095;SDS011;59968;51.084;16.748;2022-12-18T16:52:20;24.30;;;8.30;;
72095;SDS011;59968;51.084;16.748;2022-12-18T16:54:49;19.70;;;6.10;;
72095;SDS011;59968;51.084;16.748;2022-12-18T16:57:18;15.40;;;4.70;;